Delta Virtual Airport Information Service

Mc Guire AFB

ICAO: KWRI Country: United States
Latitude: 40.0156 Longitude: -74.5917
Latest Arrival : GTI8026 (1A) (KMIA-KWRI) Latest Departure : GTI8233 (KWRI-KJFK)


WX CaptureLIVE
Data provided by noaa.gov | Fetched at 04:57:27

METAR : KWRI 030956Z AUTO 29007KT 10SM CLR 07/M02 A2983 RMK AO2 SLP101 T00661023 $

TAF : KWRI 031000Z 0310/0416 30012KT 9999 FEW060 QNH2983INS BECMG 0314/0315 30012G18KT 9999 SCT180 QNH2998INS TEMPO 0316/0320 29015G25KT BECMG 0322/0323 29009KT 9999 BKN080 QNH3004INS BECMG 0401/0402 VRB04KT 9999 BKN070 QNH3007INS BECMG 0407/0408 VRB05KT 9999 BKN040 QNH3008INS TX08/0319Z TNM01/0409Z


Runway Data for KWRI
Data provided by openaviationdata.com

Runway ID Mag Var Hdg Length Elevation Surface ILS Freq ILS Id ILS Slope
6 -12 57° 9997 ft 131 ft Asphalt 110.1 IWRI 2
18 -12 184° 7129 ft 131 ft Asphalt -- -- --
24 -12 237° 9997 ft 131 ft Asphalt 110.1 IJTQ 2
36 -12 7129 ft 131 ft Asphalt -- -- --

Mc Guire AFB, United States
Use only for reference purposes



Not for navigational purposes.